sensor_id;sensor_type;location;lat;lon;timestamp;temperature;humidity
24250;DHT22;12379;49.820;8.648;2022-10-17T00:01:41;13.60;99.90
24250;DHT22;12379;49.820;8.648;2022-10-17T00:04:07;13.60;99.90
24250;DHT22;12379;49.820;8.648;2022-10-17T00:06:32;13.60;99.90
24250;DHT22;12379;49.820;8.648;2022-10-17T00:08:58;13.60;99.90
24250;DHT22;12379;49.820;8.648;2022-10-17T00:11:31;13.50;99.90
24250;DHT22;12379;49.820;8.648;2022-10-17T00:14:01;13.50;99.90
24250;DHT22;12379;49.820;8.648;2022-10-17T00:16:33;13.50;99.90
24250;DHT22;12379;49.820;8.648;2022-10-17T00:19:02;13.50;99.90
24250;DHT22;12379;49.820;8.648;2022-10-17T00:21:28;13.40;99.90
24250;DHT22;12379;49.820;8.648;2022-10-17T00:23:54;13.50;99.90
24250;DHT22;12379;49.820;8.648;2022-10-17T00:26:20;13.40;99.90
24250;DHT22;12379;49.820;8.648;2022-10-17T00:28:47;13.40;99.90
24250;DHT22;12379;49.820;8.648;2022-10-17T00:31:13;13.40;99.90
24250;DHT22;12379;49.820;8.648;2022-10-17T00:33:39;13.40;99.90
24250;DHT22;12379;49.820;8.648;2022-10-17T00:36:15;13.30;99.90
24250;DHT22;12379;49.820;8.648;2022-10-17T00:38:43;13.30;99.90
24250;DHT22;12379;49.820;8.648;2022-10-17T00:41:11;13.30;99.90
24250;DHT22;12379;49.820;8.648;2022-10-17T00:43:59;13.30;99.90
24250;DHT22;12379;49.820;8.648;2022-10-17T00:46:30;13.30;99.90
24250;DHT22;12379;49.820;8.648;2022-10-17T00:48:58;13.30;99.90
24250;DHT22;12379;49.820;8.648;2022-10-17T00:51:32;13.30;99.90
24250;DHT22;12379;49.820;8.648;2022-10-17T00:53:58;13.20;99.90
24250;DHT22;12379;49.820;8.648;2022-10-17T00:56:25;13.20;99.90
24250;DHT22;12379;49.820;8.648;2022-10-17T00:58:51;13.20;99.90
24250;DHT22;12379;49.820;8.648;2022-10-17T01:01:17;13.20;99.90
24250;DHT22;12379;49.820;8.648;2022-10-17T01:03:43;13.20;99.90
24250;DHT22;12379;49.820;8.648;2022-10-17T01:06:08;13.20;99.90
24250;DHT22;12379;49.820;8.648;2022-10-17T01:08:34;13.20;99.90
24250;DHT22;12379;49.820;8.648;2022-10-17T01:13:50;13.10;99.90
24250;DHT22;12379;49.820;8.648;2022-10-17T01:19:18;13.00;99.90
24250;DHT22;12379;49.820;8.648;2022-10-17T01:28:00;12.90;99.90
24250;DHT22;12379;49.820;8.648;2022-10-17T01:36:41;12.90;99.90
24250;DHT22;12379;49.820;8.648;2022-10-17T01:42:05;12.90;99.90
24250;DHT22;12379;49.820;8.648;2022-10-17T01:47:21;12.90;99.90
24250;DHT22;12379;49.820;8.648;2022-10-17T01:49:50;12.90;99.90
24250;DHT22;12379;49.820;8.648;2022-10-17T01:52:22;12.90;99.90
24250;DHT22;12379;49.820;8.648;2022-10-17T01:55:01;12.90;99.90
24250;DHT22;12379;49.820;8.648;2022-10-17T01:57:32;12.90;99.90
24250;DHT22;12379;49.820;8.648;2022-10-17T02:00:00;12.80;99.90
24250;DHT22;12379;49.820;8.648;2022-10-17T02:02:27;12.80;99.90
24250;DHT22;12379;49.820;8.648;2022-10-17T02:04:54;12.80;99.90
24250;DHT22;12379;49.820;8.648;2022-10-17T02:07:21;12.80;99.90
24250;DHT22;12379;49.820;8.648;2022-10-17T02:09:47;12.80;99.90
24250;DHT22;12379;49.820;8.648;2022-10-17T02:12:34;12.80;99.90
24250;DHT22;12379;49.820;8.648;2022-10-17T02:21:27;12.80;99.90
24250;DHT22;12379;49.820;8.648;2022-10-17T02:26:54;12.80;99.90
24250;DHT22;12379;49.820;8.648;2022-10-17T02:29:27;12.80;99.90
24250;DHT22;12379;49.820;8.648;2022-10-17T02:31:59;12.80;99.90
24250;DHT22;12379;49.820;8.648;2022-10-17T02:37:02;12.80;99.90
24250;DHT22;12379;49.820;8.648;2022-10-17T02:39:30;12.80;99.90
24250;DHT22;12379;49.820;8.648;2022-10-17T02:42:01;12.80;99.90
24250;DHT22;12379;49.820;8.648;2022-10-17T02:44:29;12.80;99.90
24250;DHT22;12379;49.820;8.648;2022-10-17T02:47:05;12.80;99.90
24250;DHT22;12379;49.820;8.648;2022-10-17T02:49:37;12.80;99.90
24250;DHT22;12379;49.820;8.648;2022-10-17T02:52:13;12.80;99.90
24250;DHT22;12379;49.820;8.648;2022-10-17T02:54:44;12.70;99.90
24250;DHT22;12379;49.820;8.648;2022-10-17T02:57:17;12.70;99.90
24250;DHT22;12379;49.820;8.648;2022-10-17T02:59:46;12.70;99.90
24250;DHT22;12379;49.820;8.648;2022-10-17T03:02:12;12.70;99.90
24250;DHT22;12379;49.820;8.648;2022-10-17T03:04:38;12.70;99.90
24250;DHT22;12379;49.820;8.648;2022-10-17T03:07:06;12.60;99.90
24250;DHT22;12379;49.820;8.648;2022-10-17T03:09:32;12.60;99.90
24250;DHT22;12379;49.820;8.648;2022-10-17T03:11:57;12.60;99.90
24250;DHT22;12379;49.820;8.648;2022-10-17T03:14:23;12.60;99.90
24250;DHT22;12379;49.820;8.648;2022-10-17T03:16:48;12.60;99.90
24250;DHT22;12379;49.820;8.648;2022-10-17T03:19:14;12.60;99.90
24250;DHT22;12379;49.820;8.648;2022-10-17T03:21:40;12.60;99.90
24250;DHT22;12379;49.820;8.648;2022-10-17T03:24:05;12.60;99.90
24250;DHT22;12379;49.820;8.648;2022-10-17T03:26:31;12.60;99.90
24250;DHT22;12379;49.820;8.648;2022-10-17T03:28:56;12.50;99.90
24250;DHT22;12379;49.820;8.648;2022-10-17T03:31:22;12.50;99.90
24250;DHT22;12379;49.820;8.648;2022-10-17T03:33:48;12.50;99.90
24250;DHT22;12379;49.820;8.648;2022-10-17T03:36:15;12.50;99.90
24250;DHT22;12379;49.820;8.648;2022-10-17T03:38:42;12.50;99.90
24250;DHT22;12379;49.820;8.648;2022-10-17T03:41:08;12.60;99.90
24250;DHT22;12379;49.820;8.648;2022-10-17T03:43:34;12.50;99.90
24250;DHT22;12379;49.820;8.648;2022-10-17T03:46:00;12.50;99.90
24250;DHT22;12379;49.820;8.648;2022-10-17T03:48:28;12.60;99.90
24250;DHT22;12379;49.820;8.648;2022-10-17T03:51:05;12.60;99.90
24250;DHT22;12379;49.820;8.648;2022-10-17T03:53:31;12.60;99.90
24250;DHT22;12379;49.820;8.648;2022-10-17T03:56:14;12.50;99.90
24250;DHT22;12379;49.820;8.648;2022-10-17T03:58:41;12.50;99.90
24250;DHT22;12379;49.820;8.648;2022-10-17T04:01:08;12.50;99.90
24250;DHT22;12379;49.820;8.648;2022-10-17T04:03:34;12.50;99.90
24250;DHT22;12379;49.820;8.648;2022-10-17T04:06:01;12.50;99.90
24250;DHT22;12379;49.820;8.648;2022-10-17T04:08:27;12.50;99.90
24250;DHT22;12379;49.820;8.648;2022-10-17T04:11:00;12.50;99.90
24250;DHT22;12379;49.820;8.648;2022-10-17T04:13:27;12.50;99.90
24250;DHT22;12379;49.820;8.648;2022-10-17T04:16:06;12.50;99.90
24250;DHT22;12379;49.820;8.648;2022-10-17T04:18:32;12.50;99.90
24250;DHT22;12379;49.820;8.648;2022-10-17T04:21:00;12.50;99.90
24250;DHT22;12379;49.820;8.648;2022-10-17T04:23:27;12.50;99.90
24250;DHT22;12379;49.820;8.648;2022-10-17T04:25:55;12.50;99.90
24250;DHT22;12379;49.820;8.648;2022-10-17T04:28:21;12.50;99.90
24250;DHT22;12379;49.820;8.648;2022-10-17T04:30:52;12.40;99.90
24250;DHT22;12379;49.820;8.648;2022-10-17T04:33:19;12.40;99.90
24250;DHT22;12379;49.820;8.648;2022-10-17T04:36:15;12.40;99.90
24250;DHT22;12379;49.820;8.648;2022-10-17T04:38:39;12.40;99.90
24250;DHT22;12379;49.820;8.648;2022-10-17T04:41:07;12.40;99.90
24250;DHT22;12379;49.820;8.648;2022-10-17T04:43:35;12.40;99.90
24250;DHT22;12379;49.820;8.648;2022-10-17T04:46:05;12.40;99.90
24250;DHT22;12379;49.820;8.648;2022-10-17T04:48:31;12.50;99.90
24250;DHT22;12379;49.820;8.648;2022-10-17T04:50:58;12.50;99.90
24250;DHT22;12379;49.820;8.648;2022-10-17T04:53:25;12.40;99.90
24250;DHT22;12379;49.820;8.648;2022-10-17T04:55:51;12.50;99.90
24250;DHT22;12379;49.820;8.648;2022-10-17T04:58:17;12.50;99.90
24250;DHT22;12379;49.820;8.648;2022-10-17T05:00:43;12.50;99.90
24250;DHT22;12379;49.820;8.648;2022-10-17T05:03:09;12.40;99.90
24250;DHT22;12379;49.820;8.648;2022-10-17T05:05:38;12.50;99.90
24250;DHT22;12379;49.820;8.648;2022-10-17T05:08:05;12.40;99.90
24250;DHT22;12379;49.820;8.648;2022-10-17T05:10:39;12.40;99.90
24250;DHT22;12379;49.820;8.648;2022-10-17T05:13:06;12.40;99.90
24250;DHT22;12379;49.820;8.648;2022-10-17T05:15:32;12.40;99.90
24250;DHT22;12379;49.820;8.648;2022-10-17T05:17:57;12.40;99.90
24250;DHT22;12379;49.820;8.648;2022-10-17T05:20:25;12.40;99.90
24250;DHT22;12379;49.820;8.648;2022-10-17T05:22:50;12.40;99.90
24250;DHT22;12379;49.820;8.648;2022-10-17T05:25:16;12.40;99.90
24250;DHT22;12379;49.820;8.648;2022-10-17T05:27:41;12.40;99.90
24250;DHT22;12379;49.820;8.648;2022-10-17T05:30:08;12.40;99.90
24250;DHT22;12379;49.820;8.648;2022-10-17T05:32:34;12.40;99.90
24250;DHT22;12379;49.820;8.648;2022-10-17T05:35:00;12.40;99.90
24250;DHT22;12379;49.820;8.648;2022-10-17T05:37:28;12.40;99.90
24250;DHT22;12379;49.820;8.648;2022-10-17T05:39:54;12.40;99.90
24250;DHT22;12379;49.820;8.648;2022-10-17T05:42:20;12.40;99.90
24250;DHT22;12379;49.820;8.648;2022-10-17T05:44:45;13.00;99.90
24250;DHT22;12379;49.820;8.648;2022-10-17T05:47:11;13.50;99.90
24250;DHT22;12379;49.820;8.648;2022-10-17T05:49:36;13.70;99.90
24250;DHT22;12379;49.820;8.648;2022-10-17T05:52:02;13.70;99.90
24250;DHT22;12379;49.820;8.648;2022-10-17T05:54:28;13.60;99.90
24250;DHT22;12379;49.820;8.648;2022-10-17T05:56:54;13.50;99.90
24250;DHT22;12379;49.820;8.648;2022-10-17T05:59:20;13.20;99.90
24250;DHT22;12379;49.820;8.648;2022-10-17T06:01:46;12.90;99.90
24250;DHT22;12379;49.820;8.648;2022-10-17T06:04:11;12.80;99.90
24250;DHT22;12379;49.820;8.648;2022-10-17T06:06:38;12.70;99.90
24250;DHT22;12379;49.820;8.648;2022-10-17T06:09:04;12.60;99.90
24250;DHT22;12379;49.820;8.648;2022-10-17T06:11:30;12.60;99.90
24250;DHT22;12379;49.820;8.648;2022-10-17T06:13:56;12.60;99.90
24250;DHT22;12379;49.820;8.648;2022-10-17T06:16:21;12.60;99.90
24250;DHT22;12379;49.820;8.648;2022-10-17T06:18:47;12.50;99.90
24250;DHT22;12379;49.820;8.648;2022-10-17T06:21:15;12.60;99.90
24250;DHT22;12379;49.820;8.648;2022-10-17T06:23:41;12.60;99.90
24250;DHT22;12379;49.820;8.648;2022-10-17T06:26:07;12.70;99.90
24250;DHT22;12379;49.820;8.648;2022-10-17T06:28:33;12.70;99.90
24250;DHT22;12379;49.820;8.648;2022-10-17T06:31:03;12.70;99.90
24250;DHT22;12379;49.820;8.648;2022-10-17T06:33:29;12.80;99.90
24250;DHT22;12379;49.820;8.648;2022-10-17T06:35:55;12.70;99.90
24250;DHT22;12379;49.820;8.648;2022-10-17T06:38:21;12.80;99.90
24250;DHT22;12379;49.820;8.648;2022-10-17T06:40:47;12.80;99.90
24250;DHT22;12379;49.820;8.648;2022-10-17T06:43:13;12.90;99.90
24250;DHT22;12379;49.820;8.648;2022-10-17T06:45:39;12.90;99.90
24250;DHT22;12379;49.820;8.648;2022-10-17T06:48:05;13.00;99.90
24250;DHT22;12379;49.820;8.648;2022-10-17T06:50:30;13.00;99.90
24250;DHT22;12379;49.820;8.648;2022-10-17T06:52:56;13.00;99.90
24250;DHT22;12379;49.820;8.648;2022-10-17T06:55:21;13.10;99.90
24250;DHT22;12379;49.820;8.648;2022-10-17T06:57:47;13.20;99.90
24250;DHT22;12379;49.820;8.648;2022-10-17T07:00:12;13.30;99.90
24250;DHT22;12379;49.820;8.648;2022-10-17T07:02:38;13.50;99.90
24250;DHT22;12379;49.820;8.648;2022-10-17T07:05:04;13.60;99.90
24250;DHT22;12379;49.820;8.648;2022-10-17T07:07:31;13.70;99.90
24250;DHT22;12379;49.820;8.648;2022-10-17T07:09:57;14.20;99.90
24250;DHT22;12379;49.820;8.648;2022-10-17T07:12:22;14.70;99.90
24250;DHT22;12379;49.820;8.648;2022-10-17T07:14:48;15.20;99.90
24250;DHT22;12379;49.820;8.648;2022-10-17T07:17:15;15.80;99.90
24250;DHT22;12379;49.820;8.648;2022-10-17T07:19:41;16.40;99.90
24250;DHT22;12379;49.820;8.648;2022-10-17T07:22:08;16.60;99.90
24250;DHT22;12379;49.820;8.648;2022-10-17T07:24:33;16.80;99.90
24250;DHT22;12379;49.820;8.648;2022-10-17T07:26:59;17.10;99.90
24250;DHT22;12379;49.820;8.648;2022-10-17T07:29:25;17.50;99.90
24250;DHT22;12379;49.820;8.648;2022-10-17T07:31:50;17.60;99.90
24250;DHT22;12379;49.820;8.648;2022-10-17T07:34:16;18.00;99.90
24250;DHT22;12379;49.820;8.648;2022-10-17T07:36:42;18.50;99.90
24250;DHT22;12379;49.820;8.648;2022-10-17T07:39:08;18.50;99.90
24250;DHT22;12379;49.820;8.648;2022-10-17T07:41:33;18.70;99.90
24250;DHT22;12379;49.820;8.648;2022-10-17T07:43:59;18.70;99.90
24250;DHT22;12379;49.820;8.648;2022-10-17T07:46:24;18.70;99.90
24250;DHT22;12379;49.820;8.648;2022-10-17T07:48:50;18.90;99.90
24250;DHT22;12379;49.820;8.648;2022-10-17T07:51:16;19.40;99.90
24250;DHT22;12379;49.820;8.648;2022-10-17T07:53:43;19.60;99.90
24250;DHT22;12379;49.820;8.648;2022-10-17T07:56:09;19.40;99.90
24250;DHT22;12379;49.820;8.648;2022-10-17T07:58:35;19.50;99.90
24250;DHT22;12379;49.820;8.648;2022-10-17T08:01:07;19.60;99.90
24250;DHT22;12379;49.820;8.648;2022-10-17T08:03:35;19.80;99.90
24250;DHT22;12379;49.820;8.648;2022-10-17T08:06:02;20.00;99.90
24250;DHT22;12379;49.820;8.648;2022-10-17T08:08:28;20.10;99.90
24250;DHT22;12379;49.820;8.648;2022-10-17T08:10:54;20.00;99.90
24250;DHT22;12379;49.820;8.648;2022-10-17T08:13:21;20.50;99.90
24250;DHT22;12379;49.820;8.648;2022-10-17T08:15:47;20.40;99.90
24250;DHT22;12379;49.820;8.648;2022-10-17T08:18:14;20.50;99.90
24250;DHT22;12379;49.820;8.648;2022-10-17T08:20:40;20.90;99.90
24250;DHT22;12379;49.820;8.648;2022-10-17T08:23:06;21.20;99.90
24250;DHT22;12379;49.820;8.648;2022-10-17T08:25:32;21.30;99.90
24250;DHT22;12379;49.820;8.648;2022-10-17T08:27:58;21.20;99.90
24250;DHT22;12379;49.820;8.648;2022-10-17T08:30:23;21.10;99.90
24250;DHT22;12379;49.820;8.648;2022-10-17T08:32:49;21.20;99.90
24250;DHT22;12379;49.820;8.648;2022-10-17T08:35:15;21.40;99.90
24250;DHT22;12379;49.820;8.648;2022-10-17T08:37:40;21.50;99.90
24250;DHT22;12379;49.820;8.648;2022-10-17T08:40:08;21.40;99.90
24250;DHT22;12379;49.820;8.648;2022-10-17T08:43:05;21.40;99.90
24250;DHT22;12379;49.820;8.648;2022-10-17T08:45:52;21.10;99.90
24250;DHT22;12379;49.820;8.648;2022-10-17T08:48:22;20.80;99.90
24250;DHT22;12379;49.820;8.648;2022-10-17T08:50:58;20.80;99.90
24250;DHT22;12379;49.820;8.648;2022-10-17T08:53:44;20.80;99.90
24250;DHT22;12379;49.820;8.648;2022-10-17T08:56:26;20.80;99.90
24250;DHT22;12379;49.820;8.648;2022-10-17T08:58:54;20.80;99.90
24250;DHT22;12379;49.820;8.648;2022-10-17T09:01:41;20.70;99.90
24250;DHT22;12379;49.820;8.648;2022-10-17T09:04:33;20.70;99.90
24250;DHT22;12379;49.820;8.648;2022-10-17T09:12:17;20.70;99.90
24250;DHT22;12379;49.820;8.648;2022-10-17T09:14:59;20.90;99.90
24250;DHT22;12379;49.820;8.648;2022-10-17T09:17:58;21.10;99.90
24250;DHT22;12379;49.820;8.648;2022-10-17T09:20:29;21.10;99.90
24250;DHT22;12379;49.820;8.648;2022-10-17T09:23:10;20.90;99.90
24250;DHT22;12379;49.820;8.648;2022-10-17T09:25:54;21.00;99.90
24250;DHT22;12379;49.820;8.648;2022-10-17T09:33:42;21.40;99.90
24250;DHT22;12379;49.820;8.648;2022-10-17T09:36:14;21.80;99.90
24250;DHT22;12379;49.820;8.648;2022-10-17T09:38:47;21.90;99.90
24250;DHT22;12379;49.820;8.648;2022-10-17T09:41:22;21.70;99.90
24250;DHT22;12379;49.820;8.648;2022-10-17T09:43:51;21.60;99.90
24250;DHT22;12379;49.820;8.648;2022-10-17T09:46:26;21.80;99.90
24250;DHT22;12379;49.820;8.648;2022-10-17T09:49:04;21.90;99.90
24250;DHT22;12379;49.820;8.648;2022-10-17T09:51:31;21.80;99.90
24250;DHT22;12379;49.820;8.648;2022-10-17T09:54:02;21.80;99.90
24250;DHT22;12379;49.820;8.648;2022-10-17T09:56:28;21.80;99.90
24250;DHT22;12379;49.820;8.648;2022-10-17T09:58:57;21.90;99.90
24250;DHT22;12379;49.820;8.648;2022-10-17T10:04:14;21.90;99.90
24250;DHT22;12379;49.820;8.648;2022-10-17T10:06:41;21.90;99.90
24250;DHT22;12379;49.820;8.648;2022-10-17T10:09:27;21.90;99.90
24250;DHT22;12379;49.820;8.648;2022-10-17T10:11:55;22.10;99.90
24250;DHT22;12379;49.820;8.648;2022-10-17T10:14:31;22.10;99.90
24250;DHT22;12379;49.820;8.648;2022-10-17T10:17:04;22.00;99.90
24250;DHT22;12379;49.820;8.648;2022-10-17T10:19:36;21.90;99.90
24250;DHT22;12379;49.820;8.648;2022-10-17T10:22:04;21.90;99.90
24250;DHT22;12379;49.820;8.648;2022-10-17T10:24:31;21.90;99.90
24250;DHT22;12379;49.820;8.648;2022-10-17T10:26:59;21.90;99.90
24250;DHT22;12379;49.820;8.648;2022-10-17T10:29:31;22.10;99.90
24250;DHT22;12379;49.820;8.648;2022-10-17T10:32:18;22.20;99.90
24250;DHT22;12379;49.820;8.648;2022-10-17T10:34:49;22.20;99.90
24250;DHT22;12379;49.820;8.648;2022-10-17T10:37:24;22.20;99.90
24250;DHT22;12379;49.820;8.648;2022-10-17T10:39:59;22.20;99.90
24250;DHT22;12379;49.820;8.648;2022-10-17T10:42:36;22.30;99.90
24250;DHT22;12379;49.820;8.648;2022-10-17T10:47:30;22.10;99.90
24250;DHT22;12379;49.820;8.648;2022-10-17T10:50:27;22.10;99.90
24250;DHT22;12379;49.820;8.648;2022-10-17T10:55:41;22.10;99.90
24250;DHT22;12379;49.820;8.648;2022-10-17T11:00:53;22.10;99.90
24250;DHT22;12379;49.820;8.648;2022-10-17T11:03:29;22.10;99.90
24250;DHT22;12379;49.820;8.648;2022-10-17T11:06:01;22.00;99.90
24250;DHT22;12379;49.820;8.648;2022-10-17T11:08:32;21.90;99.90
24250;DHT22;12379;49.820;8.648;2022-10-17T11:14:07;22.00;99.90
24250;DHT22;12379;49.820;8.648;2022-10-17T11:16:52;22.20;99.90
24250;DHT22;12379;49.820;8.648;2022-10-17T11:19:36;22.20;99.90
24250;DHT22;12379;49.820;8.648;2022-10-17T11:22:15;22.20;99.90
24250;DHT22;12379;49.820;8.648;2022-10-17T11:27:33;22.20;99.90
24250;DHT22;12379;49.820;8.648;2022-10-17T11:29:59;22.20;99.90
24250;DHT22;12379;49.820;8.648;2022-10-17T11:32:37;22.20;99.90
24250;DHT22;12379;49.820;8.648;2022-10-17T11:37:38;22.30;99.90
24250;DHT22;12379;49.820;8.648;2022-10-17T11:40:32;22.30;99.90
24250;DHT22;12379;49.820;8.648;2022-10-17T11:43:01;22.40;99.90
24250;DHT22;12379;49.820;8.648;2022-10-17T11:45:32;22.50;99.90
24250;DHT22;12379;49.820;8.648;2022-10-17T11:48:05;22.60;99.90
24250;DHT22;12379;49.820;8.648;2022-10-17T11:50:34;22.60;99.90
24250;DHT22;12379;49.820;8.648;2022-10-17T11:53:12;22.50;99.90
24250;DHT22;12379;49.820;8.648;2022-10-17T11:55:40;22.50;99.90
24250;DHT22;12379;49.820;8.648;2022-10-17T12:00:55;22.60;99.90
24250;DHT22;12379;49.820;8.648;2022-10-17T12:03:47;22.70;99.90
24250;DHT22;12379;49.820;8.648;2022-10-17T12:07:10;22.70;99.90
24250;DHT22;12379;49.820;8.648;2022-10-17T12:12:10;22.80;99.90
24250;DHT22;12379;49.820;8.648;2022-10-17T12:14:47;22.80;99.90
24250;DHT22;12379;49.820;8.648;2022-10-17T12:23:14;23.00;99.90
24250;DHT22;12379;49.820;8.648;2022-10-17T12:25:54;23.00;99.90
24250;DHT22;12379;49.820;8.648;2022-10-17T12:33:33;23.20;99.90
24250;DHT22;12379;49.820;8.648;2022-10-17T12:57:50;23.40;99.90
24250;DHT22;12379;49.820;8.648;2022-10-17T13:00:30;23.50;99.90
24250;DHT22;12379;49.820;8.648;2022-10-17T13:03:15;23.50;99.90
24250;DHT22;12379;49.820;8.648;2022-10-17T13:05:46;23.40;99.90
24250;DHT22;12379;49.820;8.648;2022-10-17T13:08:20;23.40;99.90
24250;DHT22;12379;49.820;8.648;2022-10-17T13:10:48;23.30;99.90
24250;DHT22;12379;49.820;8.648;2022-10-17T13:13:19;23.30;99.90
24250;DHT22;12379;49.820;8.648;2022-10-17T13:15:48;23.40;99.90
24250;DHT22;12379;49.820;8.648;2022-10-17T13:18:26;23.40;99.90
24250;DHT22;12379;49.820;8.648;2022-10-17T13:21:02;23.50;99.90
24250;DHT22;12379;49.820;8.648;2022-10-17T13:23:31;23.40;99.90
24250;DHT22;12379;49.820;8.648;2022-10-17T13:26:04;23.40;99.90
24250;DHT22;12379;49.820;8.648;2022-10-17T13:28:30;23.50;99.90
24250;DHT22;12379;49.820;8.648;2022-10-17T13:30:56;23.40;99.90
24250;DHT22;12379;49.820;8.648;2022-10-17T13:33:34;23.30;99.90
24250;DHT22;12379;49.820;8.648;2022-10-17T13:36:08;23.40;99.90
24250;DHT22;12379;49.820;8.648;2022-10-17T13:38:37;23.40;99.90
24250;DHT22;12379;49.820;8.648;2022-10-17T13:41:12;23.30;99.90
24250;DHT22;12379;49.820;8.648;2022-10-17T13:43:39;23.40;99.90
24250;DHT22;12379;49.820;8.648;2022-10-17T13:46:06;23.50;99.90
24250;DHT22;12379;49.820;8.648;2022-10-17T13:48:35;23.40;99.90
24250;DHT22;12379;49.820;8.648;2022-10-17T13:51:03;23.40;99.90
24250;DHT22;12379;49.820;8.648;2022-10-17T13:53:33;23.40;99.90
24250;DHT22;12379;49.820;8.648;2022-10-17T13:58:48;23.30;99.90
24250;DHT22;12379;49.820;8.648;2022-10-17T14:01:15;23.20;99.90
24250;DHT22;12379;49.820;8.648;2022-10-17T14:03:42;23.30;99.90
24250;DHT22;12379;49.820;8.648;2022-10-17T14:06:15;23.20;99.90
24250;DHT22;12379;49.820;8.648;2022-10-17T14:08:59;23.30;99.90
24250;DHT22;12379;49.820;8.648;2022-10-17T14:11:33;23.30;99.90
24250;DHT22;12379;49.820;8.648;2022-10-17T14:14:00;23.30;99.90
24250;DHT22;12379;49.820;8.648;2022-10-17T14:16:34;23.30;99.90
24250;DHT22;12379;49.820;8.648;2022-10-17T14:19:00;23.10;99.90
24250;DHT22;12379;49.820;8.648;2022-10-17T14:21:26;23.10;99.90
24250;DHT22;12379;49.820;8.648;2022-10-17T14:24:15;23.10;99.90
24250;DHT22;12379;49.820;8.648;2022-10-17T14:26:55;23.10;99.90
24250;DHT22;12379;49.820;8.648;2022-10-17T14:29:26;23.10;99.90
24250;DHT22;12379;49.820;8.648;2022-10-17T14:32:04;23.10;99.90
24250;DHT22;12379;49.820;8.648;2022-10-17T14:34:36;23.10;99.90
24250;DHT22;12379;49.820;8.648;2022-10-17T14:37:23;23.00;99.90
24250;DHT22;12379;49.820;8.648;2022-10-17T14:39:52;23.00;99.90
24250;DHT22;12379;49.820;8.648;2022-10-17T14:42:20;22.90;99.90
24250;DHT22;12379;49.820;8.648;2022-10-17T14:44:51;22.80;99.90
24250;DHT22;12379;49.820;8.648;2022-10-17T14:47:20;22.70;99.90
24250;DHT22;12379;49.820;8.648;2022-10-17T14:49:49;22.60;99.90
24250;DHT22;12379;49.820;8.648;2022-10-17T14:54:42;22.50;99.90
24250;DHT22;12379;49.820;8.648;2022-10-17T14:59:54;22.40;99.90
24250;DHT22;12379;49.820;8.648;2022-10-17T15:02:21;22.40;99.90
24250;DHT22;12379;49.820;8.648;2022-10-17T15:04:47;22.30;99.90
24250;DHT22;12379;49.820;8.648;2022-10-17T15:07:14;22.30;99.90
24250;DHT22;12379;49.820;8.648;2022-10-17T15:09:41;22.30;99.90
24250;DHT22;12379;49.820;8.648;2022-10-17T15:12:17;22.20;99.90
24250;DHT22;12379;49.820;8.648;2022-10-17T15:14:44;22.20;99.90
24250;DHT22;12379;49.820;8.648;2022-10-17T15:17:15;22.20;99.90
24250;DHT22;12379;49.820;8.648;2022-10-17T15:19:41;22.20;99.90
24250;DHT22;12379;49.820;8.648;2022-10-17T15:22:06;22.10;99.90
24250;DHT22;12379;49.820;8.648;2022-10-17T15:24:32;22.20;99.90
24250;DHT22;12379;49.820;8.648;2022-10-17T15:26:58;22.10;99.90
24250;DHT22;12379;49.820;8.648;2022-10-17T15:29:23;22.20;99.90
24250;DHT22;12379;49.820;8.648;2022-10-17T15:31:49;22.10;99.90
24250;DHT22;12379;49.820;8.648;2022-10-17T15:34:14;22.20;99.90
24250;DHT22;12379;49.820;8.648;2022-10-17T15:36:41;22.20;99.90
24250;DHT22;12379;49.820;8.648;2022-10-17T15:39:12;22.30;99.90
24250;DHT22;12379;49.820;8.648;2022-10-17T15:41:37;22.20;99.90
24250;DHT22;12379;49.820;8.648;2022-10-17T15:44:03;22.20;99.90
24250;DHT22;12379;49.820;8.648;2022-10-17T15:46:32;22.10;99.90
24250;DHT22;12379;49.820;8.648;2022-10-17T15:49:08;22.20;99.90
24250;DHT22;12379;49.820;8.648;2022-10-17T15:51:34;22.10;99.90
24250;DHT22;12379;49.820;8.648;2022-10-17T15:54:03;22.00;99.90
24250;DHT22;12379;49.820;8.648;2022-10-17T15:56:39;22.00;99.90
24250;DHT22;12379;49.820;8.648;2022-10-17T15:59:13;21.90;99.90
24250;DHT22;12379;49.820;8.648;2022-10-17T16:01:39;21.90;99.90
24250;DHT22;12379;49.820;8.648;2022-10-17T16:04:05;21.80;99.90
24250;DHT22;12379;49.820;8.648;2022-10-17T16:06:31;21.70;99.90
24250;DHT22;12379;49.820;8.648;2022-10-17T16:08:56;21.70;99.90
24250;DHT22;12379;49.820;8.648;2022-10-17T16:11:26;21.60;99.90
24250;DHT22;12379;49.820;8.648;2022-10-17T16:13:54;21.50;99.90
24250;DHT22;12379;49.820;8.648;2022-10-17T16:16:21;21.40;99.90
24250;DHT22;12379;49.820;8.648;2022-10-17T16:18:47;21.30;99.90
24250;DHT22;12379;49.820;8.648;2022-10-17T16:21:14;21.20;99.90
24250;DHT22;12379;49.820;8.648;2022-10-17T16:23:40;21.10;99.90
24250;DHT22;12379;49.820;8.648;2022-10-17T16:26:07;21.00;99.90
24250;DHT22;12379;49.820;8.648;2022-10-17T16:28:33;20.90;99.90
24250;DHT22;12379;49.820;8.648;2022-10-17T16:30:59;20.80;99.90
24250;DHT22;12379;49.820;8.648;2022-10-17T16:33:25;20.70;99.90
24250;DHT22;12379;49.820;8.648;2022-10-17T16:35:50;20.60;99.90
24250;DHT22;12379;49.820;8.648;2022-10-17T16:38:16;20.50;99.90
24250;DHT22;12379;49.820;8.648;2022-10-17T16:40:42;20.40;99.90
24250;DHT22;12379;49.820;8.648;2022-10-17T16:43:11;20.40;99.90
24250;DHT22;12379;49.820;8.648;2022-10-17T16:45:37;20.30;99.90
24250;DHT22;12379;49.820;8.648;2022-10-17T16:48:03;20.10;99.90
24250;DHT22;12379;49.820;8.648;2022-10-17T16:50:29;20.00;99.90
24250;DHT22;12379;49.820;8.648;2022-10-17T16:52:59;19.90;99.90
24250;DHT22;12379;49.820;8.648;2022-10-17T16:55:25;19.80;99.90
24250;DHT22;12379;49.820;8.648;2022-10-17T16:57:51;19.70;99.90
24250;DHT22;12379;49.820;8.648;2022-10-17T17:00:16;19.60;99.90
24250;DHT22;12379;49.820;8.648;2022-10-17T17:02:43;19.50;99.90
24250;DHT22;12379;49.820;8.648;2022-10-17T17:05:08;19.40;99.90
24250;DHT22;12379;49.820;8.648;2022-10-17T17:07:34;19.30;99.90
24250;DHT22;12379;49.820;8.648;2022-10-17T17:09:59;19.30;99.90
24250;DHT22;12379;49.820;8.648;2022-10-17T17:12:25;19.20;99.90
24250;DHT22;12379;49.820;8.648;2022-10-17T17:14:51;19.10;99.90
24250;DHT22;12379;49.820;8.648;2022-10-17T17:17:16;19.00;99.90
24250;DHT22;12379;49.820;8.648;2022-10-17T17:19:43;18.90;99.90
24250;DHT22;12379;49.820;8.648;2022-10-17T17:22:09;18.80;99.90
24250;DHT22;12379;49.820;8.648;2022-10-17T17:24:34;18.90;99.90
24250;DHT22;12379;49.820;8.648;2022-10-17T17:27:00;18.80;99.90
24250;DHT22;12379;49.820;8.648;2022-10-17T17:29:25;18.80;99.90
24250;DHT22;12379;49.820;8.648;2022-10-17T17:31:51;18.70;99.90
24250;DHT22;12379;49.820;8.648;2022-10-17T17:34:16;18.70;99.90
24250;DHT22;12379;49.820;8.648;2022-10-17T17:36:42;18.70;99.90